createdAt,value
2023-05-15T00:01:25.954Z,12.83
2023-05-15T00:03:55.257Z,12.80
2023-05-15T00:06:23.855Z,12.79
2023-05-15T00:08:52.214Z,12.78
2023-05-15T00:11:21.617Z,12.78
2023-05-15T00:13:51.141Z,12.81
2023-05-15T00:16:19.354Z,12.84
2023-05-15T00:18:47.693Z,12.83
2023-05-15T00:21:15.845Z,12.82
2023-05-15T00:23:44.114Z,12.80
2023-05-15T00:26:15.996Z,12.79
2023-05-15T00:28:44.253Z,12.76
2023-05-15T00:31:13.417Z,12.75
2023-05-15T00:33:41.721Z,12.75
2023-05-15T00:36:11.440Z,12.75
2023-05-15T00:38:39.606Z,12.73
2023-05-15T00:41:08.286Z,12.72
2023-05-15T00:43:40.457Z,12.71
2023-05-15T00:46:10.062Z,12.69
2023-05-15T00:48:38.249Z,12.68
2023-05-15T00:51:06.505Z,12.67
2023-05-15T00:53:34.707Z,12.65
2023-05-15T00:56:03.584Z,12.65
2023-05-15T00:58:32.357Z,12.64
2023-05-15T01:01:00.540Z,12.64
2023-05-15T01:03:29.285Z,12.63
2023-05-15T01:05:57.594Z,12.61
2023-05-15T01:08:44.908Z,12.58
2023-05-15T01:11:14.833Z,12.56
2023-05-15T01:13:43.825Z,12.53
2023-05-15T01:16:12.112Z,12.52
2023-05-15T01:18:40.543Z,12.49
2023-05-15T01:21:18.162Z,12.46
2023-05-15T01:23:54.317Z,12.41
2023-05-15T01:27:00.798Z,12.33
2023-05-15T01:29:59.582Z,12.23
2023-05-15T01:33:19.159Z,12.14
2023-05-15T01:35:52.146Z,12.04
2023-05-15T01:38:29.636Z,11.99
2023-05-15T01:41:03.621Z,11.95
2023-05-15T01:43:33.042Z,11.93
2023-05-15T01:46:03.471Z,11.90
2023-05-15T01:48:33.675Z,11.91
2023-05-15T01:51:03.936Z,11.90
2023-05-15T01:53:33.386Z,11.88
2023-05-15T01:56:03.118Z,11.88
2023-05-15T01:58:32.619Z,11.86
2023-05-15T02:01:01.025Z,11.85
2023-05-15T02:03:31.091Z,11.87
2023-05-15T02:05:59.507Z,11.89
2023-05-15T02:08:29.106Z,11.91
2023-05-15T02:10:58.705Z,11.95
2023-05-15T02:13:27.287Z,11.97
2023-05-15T02:15:55.886Z,12.00
2023-05-15T02:18:24.357Z,12.00
2023-05-15T02:20:52.522Z,12.02
2023-05-15T02:23:23.561Z,12.05
2023-05-15T02:26:13.842Z,12.10
2023-05-15T02:28:49.063Z,12.11
2023-05-15T02:31:38.727Z,12.11
2023-05-15T02:34:18.853Z,12.10
2023-05-15T02:36:48.546Z,12.09
2023-05-15T02:39:18.751Z,12.06
2023-05-15T02:41:47.839Z,12.08
2023-05-15T02:44:18.163Z,12.10
2023-05-15T02:46:47.858Z,12.12
2023-05-15T02:49:16.246Z,12.09
2023-05-15T02:51:44.520Z,12.06
2023-05-15T02:54:12.800Z,12.00
2023-05-15T02:56:41.171Z,11.97
2023-05-15T02:59:09.447Z,11.94
2023-05-15T03:01:37.803Z,11.92
2023-05-15T03:04:06.250Z,11.86
2023-05-15T03:06:34.579Z,11.82
2023-05-15T03:09:02.953Z,11.78
2023-05-15T03:11:31.330Z,11.74
2023-05-15T03:14:00.429Z,11.72
2023-05-15T03:16:28.866Z,11.70
2023-05-15T03:18:57.097Z,11.67
2023-05-15T03:21:25.451Z,11.66
2023-05-15T03:23:53.625Z,11.65
2023-05-15T03:26:22.114Z,11.64
2023-05-15T03:28:50.275Z,11.65
2023-05-15T03:31:18.741Z,11.66
2023-05-15T03:33:50.099Z,11.66
2023-05-15T03:36:18.289Z,11.65
2023-05-15T03:38:46.557Z,11.64
2023-05-15T03:41:14.726Z,11.64
2023-05-15T03:43:42.896Z,11.63
2023-05-15T03:46:12.611Z,11.59
2023-05-15T03:48:42.414Z,11.56
2023-05-15T03:51:11.012Z,11.54
2023-05-15T03:53:39.192Z,11.54
2023-05-15T03:56:07.343Z,11.52
2023-05-15T03:58:36.025Z,11.49
2023-05-15T04:01:04.402Z,11.46
2023-05-15T04:03:32.599Z,11.44
2023-05-15T04:06:00.951Z,11.42
2023-05-15T04:08:29.255Z,11.40
2023-05-15T04:10:57.411Z,11.39
2023-05-15T04:13:25.713Z,11.39
2023-05-15T04:15:54.537Z,11.41
2023-05-15T04:18:22.734Z,11.43
2023-05-15T04:20:51.625Z,11.43
2023-05-15T04:23:19.695Z,11.44
2023-05-15T04:25:48.996Z,11.44
2023-05-15T04:28:17.265Z,11.45
2023-05-15T04:30:45.440Z,11.47
2023-05-15T04:33:13.676Z,11.48
2023-05-15T04:35:42.090Z,11.50
2023-05-15T04:38:10.269Z,11.51
2023-05-15T04:40:38.454Z,11.51
2023-05-15T04:43:06.608Z,11.54
2023-05-15T04:45:34.778Z,11.56
2023-05-15T04:48:03.182Z,11.57
2023-05-15T04:50:31.328Z,11.59
2023-05-15T04:52:59.604Z,11.59
2023-05-15T04:55:27.698Z,11.62
2023-05-15T04:57:55.950Z,11.62
2023-05-15T05:00:24.289Z,11.63
2023-05-15T05:02:52.746Z,11.65
2023-05-15T05:05:21.064Z,11.66
2023-05-15T05:07:51.610Z,11.66
2023-05-15T05:10:19.992Z,11.66
2023-05-15T05:12:48.056Z,11.65
2023-05-15T05:15:16.441Z,11.64
2023-05-15T05:17:44.643Z,11.64
2023-05-15T05:20:13.557Z,11.64
2023-05-15T05:22:42.753Z,11.63
2023-05-15T05:25:11.382Z,11.64
2023-05-15T05:27:39.657Z,11.64
2023-05-15T05:30:08.870Z,11.62
2023-05-15T05:32:37.044Z,11.60
2023-05-15T05:35:06.016Z,11.60
2023-05-15T05:37:34.182Z,11.62
2023-05-15T05:40:02.383Z,11.60
2023-05-15T05:42:30.936Z,11.64
2023-05-15T05:44:59.208Z,11.66
2023-05-15T05:47:27.421Z,11.69
2023-05-15T05:49:55.969Z,11.71
2023-05-15T05:52:24.441Z,11.68
2023-05-15T05:54:52.621Z,11.68
2023-05-15T05:57:20.797Z,11.70
2023-05-15T05:59:49.984Z,11.73
2023-05-15T06:02:18.513Z,11.75
2023-05-15T06:04:47.250Z,11.74
2023-05-15T06:07:15.733Z,11.74
2023-05-15T06:09:46.153Z,11.73
2023-05-15T06:12:14.326Z,11.73
2023-05-15T06:14:42.504Z,11.72
2023-05-15T06:17:10.806Z,11.72
2023-05-15T06:19:38.945Z,11.72
2023-05-15T06:22:07.220Z,11.73
2023-05-15T06:24:35.494Z,11.76
2023-05-15T06:27:03.770Z,11.77
2023-05-15T06:29:32.056Z,11.78
2023-05-15T06:32:00.249Z,11.78
2023-05-15T06:34:28.391Z,11.80
2023-05-15T06:36:56.868Z,11.83
2023-05-15T06:39:25.162Z,11.85
2023-05-15T06:41:58.243Z,11.88
2023-05-15T06:44:26.405Z,11.90
2023-05-15T06:46:55.411Z,11.91
2023-05-15T06:49:24.608Z,11.89
2023-05-15T06:51:52.879Z,11.88
2023-05-15T06:54:21.452Z,11.89
2023-05-15T06:56:49.620Z,11.91
2023-05-15T06:59:17.897Z,11.94
2023-05-15T07:01:46.182Z,11.96
2023-05-15T07:04:14.615Z,12.01
2023-05-15T07:06:43.747Z,12.06
2023-05-15T07:09:13.253Z,12.10
2023-05-15T07:11:42.325Z,12.13
2023-05-15T07:14:10.513Z,12.17
2023-05-15T07:16:38.694Z,12.19
2023-05-15T07:19:09.027Z,12.24
2023-05-15T07:21:38.918Z,12.27
2023-05-15T07:24:07.618Z,12.31
2023-05-15T07:26:46.601Z,12.35
2023-05-15T07:29:24.942Z,12.39
2023-05-15T07:31:53.723Z,12.44
2023-05-15T07:34:22.013Z,12.48
2023-05-15T07:36:50.491Z,12.54
2023-05-15T07:39:18.710Z,12.57
2023-05-15T07:41:47.545Z,12.62
2023-05-15T07:44:15.825Z,12.66
2023-05-15T07:46:45.902Z,12.69
2023-05-15T07:49:14.212Z,12.76
2023-05-15T07:51:43.008Z,12.82
2023-05-15T07:54:11.276Z,12.87
2023-05-15T07:56:39.572Z,12.91
2023-05-15T07:59:08.215Z,12.97
2023-05-15T08:01:36.820Z,13.02
2023-05-15T08:04:09.264Z,13.06
2023-05-15T08:06:38.600Z,13.14
2023-05-15T08:09:06.759Z,13.22
2023-05-15T08:11:36.256Z,13.29
2023-05-15T08:14:04.478Z,13.32
2023-05-15T08:16:32.725Z,13.35
2023-05-15T08:19:04.938Z,13.36
2023-05-15T08:21:33.670Z,13.39
2023-05-15T08:24:01.830Z,13.44
2023-05-15T08:26:30.142Z,13.50
2023-05-15T08:28:58.285Z,13.56
2023-05-15T08:31:26.508Z,13.65
2023-05-15T08:33:54.724Z,13.75
2023-05-15T08:36:23.220Z,13.82
2023-05-15T08:38:51.796Z,13.91
2023-05-15T08:41:40.676Z,13.96
2023-05-15T08:44:11.291Z,14.10
2023-05-15T08:46:39.490Z,14.15
2023-05-15T08:49:46.225Z,14.21
2023-05-15T08:52:15.541Z,14.28
2023-05-15T08:54:44.987Z,14.33
2023-05-15T08:57:15.146Z,14.42
2023-05-15T08:59:43.523Z,14.57
2023-05-15T09:02:12.078Z,14.71
2023-05-15T09:04:40.793Z,14.85
2023-05-15T09:07:10.012Z,14.89
2023-05-15T09:09:39.699Z,14.89
2023-05-15T09:12:19.245Z,14.99
2023-05-15T09:14:47.406Z,15.17
2023-05-15T09:17:15.580Z,15.26
2023-05-15T09:19:44.064Z,15.27
2023-05-15T09:22:24.493Z,15.28
2023-05-15T09:24:53.436Z,15.25
2023-05-15T09:27:21.678Z,15.21
2023-05-15T09:29:54.575Z,15.19
2023-05-15T09:32:22.998Z,15.16
2023-05-15T09:34:51.868Z,15.05
2023-05-15T09:37:33.833Z,14.97
2023-05-15T09:40:09.859Z,14.89
2023-05-15T09:42:38.887Z,14.82
2023-05-15T09:45:18.094Z,14.77
2023-05-15T09:47:47.217Z,14.72
2023-05-15T09:50:21.715Z,14.67
2023-05-15T09:52:51.821Z,14.59
2023-05-15T09:55:21.304Z,14.55
2023-05-15T09:58:06.627Z,14.53
2023-05-15T10:00:35.810Z,14.55
2023-05-15T10:03:05.852Z,14.53
2023-05-15T10:05:43.182Z,14.51
2023-05-15T10:08:12.846Z,14.50
2023-05-15T10:10:42.120Z,14.51
2023-05-15T10:13:11.615Z,14.50
2023-05-15T10:15:40.609Z,14.51
2023-05-15T10:18:09.331Z,14.54
2023-05-15T10:20:37.996Z,14.57
2023-05-15T10:23:06.781Z,14.59
2023-05-15T10:26:02.178Z,14.62
2023-05-15T10:28:31.579Z,14.68
2023-05-15T10:31:01.614Z,14.74
2023-05-15T10:33:30.286Z,14.77
2023-05-15T10:35:59.381Z,14.73
2023-05-15T10:38:27.954Z,14.73
2023-05-15T10:41:12.998Z,14.71
2023-05-15T10:43:46.110Z,14.67
2023-05-15T10:46:16.031Z,14.60
2023-05-15T10:48:44.505Z,14.55
2023-05-15T10:51:17.732Z,14.50
2023-05-15T10:53:46.297Z,14.44
2023-05-15T10:56:17.998Z,14.41
2023-05-15T10:58:50.925Z,14.38
2023-05-15T11:01:39.423Z,14.28
2023-05-15T11:04:11.788Z,14.24
2023-05-15T11:06:46.033Z,14.25
2023-05-15T11:09:26.601Z,14.30
2023-05-15T11:12:00.480Z,14.34
2023-05-15T11:14:35.168Z,14.40
2023-05-15T11:17:08.182Z,14.43
2023-05-15T11:19:51.974Z,14.55
2023-05-15T11:22:23.212Z,14.69
2023-05-15T11:24:52.918Z,14.83
2023-05-15T11:27:39.949Z,14.99
2023-05-15T11:30:09.777Z,15.19
2023-05-15T11:32:47.081Z,15.42
2023-05-15T11:35:30.564Z,15.62
2023-05-15T11:38:02.126Z,15.76
2023-05-15T11:40:32.945Z,15.77
2023-05-15T11:43:08.929Z,15.65
2023-05-15T11:45:38.719Z,15.46
2023-05-15T11:48:08.558Z,15.24
2023-05-15T11:50:36.898Z,15.05
2023-05-15T11:53:07.430Z,14.92
2023-05-15T11:55:41.433Z,14.86
2023-05-15T11:58:15.351Z,14.83
2023-05-15T12:00:45.605Z,14.86
2023-05-15T12:03:18.856Z,14.91
2023-05-15T12:05:57.643Z,14.95
2023-05-15T12:08:35.541Z,15.00
2023-05-15T12:11:05.083Z,14.96
2023-05-15T12:13:34.398Z,14.94
2023-05-15T12:16:04.866Z,14.95
2023-05-15T12:18:33.911Z,14.94
2023-05-15T12:21:02.196Z,14.96
2023-05-15T12:23:30.459Z,14.98
2023-05-15T12:26:03.521Z,14.98
2023-05-15T12:28:36.235Z,14.98
2023-05-15T12:31:04.699Z,14.98
2023-05-15T12:33:33.073Z,14.89
2023-05-15T12:36:01.973Z,14.79
2023-05-15T12:38:31.211Z,14.68
2023-05-15T12:40:59.433Z,14.62
2023-05-15T12:43:28.228Z,14.64
2023-05-15T12:45:57.220Z,14.65
2023-05-15T12:48:32.767Z,14.71
2023-05-15T12:51:07.916Z,14.85
2023-05-15T12:53:38.910Z,15.03
2023-05-15T12:56:08.339Z,15.20
2023-05-15T12:58:37.512Z,15.23
2023-05-15T13:01:06.508Z,15.20
2023-05-15T13:03:35.375Z,15.14
2023-05-15T13:06:03.887Z,15.11
2023-05-15T13:08:32.161Z,15.14
2023-05-15T13:11:01.160Z,15.19
2023-05-15T13:13:46.124Z,15.28
2023-05-15T13:16:29.996Z,15.32
2023-05-15T13:18:58.814Z,15.25
2023-05-15T13:21:27.021Z,15.20
2023-05-15T13:23:55.191Z,15.17
2023-05-15T13:26:23.381Z,15.10
2023-05-15T13:28:51.533Z,15.08
2023-05-15T13:31:19.854Z,15.09
2023-05-15T13:33:48.588Z,15.12
2023-05-15T13:36:16.772Z,15.11
2023-05-15T13:38:44.942Z,15.11
2023-05-15T13:41:13.127Z,15.07
2023-05-15T13:43:41.291Z,14.96
2023-05-15T13:46:09.668Z,14.86
2023-05-15T13:48:38.250Z,14.82
2023-05-15T13:51:06.621Z,14.74
2023-05-15T13:53:34.805Z,14.66
2023-05-15T13:56:03.764Z,14.60
2023-05-15T13:58:31.965Z,14.54
2023-05-15T14:01:00.325Z,14.51
2023-05-15T14:03:28.651Z,14.49
2023-05-15T14:05:57.106Z,14.44
2023-05-15T14:08:25.370Z,14.33
2023-05-15T14:10:53.542Z,14.23
2023-05-15T14:13:21.917Z,14.13
2023-05-15T14:15:50.192Z,14.08
2023-05-15T14:18:18.572Z,14.05
2023-05-15T14:20:46.759Z,13.93
2023-05-15T14:23:15.834Z,13.88
2023-05-15T14:25:44.214Z,13.82
2023-05-15T14:28:13.307Z,13.71
2023-05-15T14:30:41.806Z,13.59
2023-05-15T14:33:10.082Z,13.53
2023-05-15T14:35:38.335Z,13.50
2023-05-15T14:38:07.133Z,13.43
2023-05-15T14:40:35.404Z,13.34
2023-05-15T14:43:03.873Z,13.26
2023-05-15T14:45:32.049Z,13.20
2023-05-15T14:48:00.268Z,13.20
2023-05-15T14:50:28.797Z,13.24
2023-05-15T14:52:57.082Z,13.33
2023-05-15T14:55:25.248Z,13.36
2023-05-15T14:57:53.520Z,13.36
2023-05-15T15:00:21.899Z,13.37
2023-05-15T15:02:50.033Z,13.33
2023-05-15T15:05:18.861Z,13.29
2023-05-15T15:08:04.468Z,13.29
2023-05-15T15:10:34.252Z,13.30
2023-05-15T15:13:03.039Z,13.31
2023-05-15T15:15:32.742Z,13.36
2023-05-15T15:18:01.530Z,13.38
2023-05-15T15:20:29.914Z,13.42
2023-05-15T15:22:58.176Z,13.46
2023-05-15T15:25:26.649Z,13.44
2023-05-15T15:27:54.933Z,13.40
2023-05-15T15:30:23.284Z,13.35
2023-05-15T15:32:51.719Z,13.29
2023-05-15T15:35:20.066Z,13.28
2023-05-15T15:37:48.243Z,13.29
2023-05-15T15:40:16.405Z,13.27
2023-05-15T15:42:45.095Z,13.29
2023-05-15T15:45:13.388Z,13.28
2023-05-15T15:47:41.573Z,13.27
2023-05-15T15:50:10.331Z,13.30
2023-05-15T15:52:38.707Z,13.29
2023-05-15T15:55:07.789Z,13.33
2023-05-15T15:57:36.893Z,13.42
2023-05-15T16:00:08.444Z,13.53
2023-05-15T16:02:36.960Z,13.61
2023-05-15T16:05:06.024Z,13.71
2023-05-15T16:07:34.502Z,13.80
2023-05-15T16:10:11.941Z,13.82
2023-05-15T16:12:42.618Z,13.84
2023-05-15T16:17:44.386Z,13.84
2023-05-15T16:20:12.775Z,13.82
2023-05-15T16:22:41.958Z,13.86
2023-05-15T16:25:10.459Z,13.82
2023-05-15T16:27:38.634Z,13.79
2023-05-15T16:30:07.613Z,13.80
2023-05-15T16:32:36.309Z,13.81
2023-05-15T16:35:05.394Z,13.77
2023-05-15T16:37:33.558Z,13.76
2023-05-15T16:40:02.000Z,13.79
2023-05-15T16:42:30.210Z,13.86
2023-05-15T16:44:58.488Z,13.90
2023-05-15T16:47:26.701Z,13.88
2023-05-15T16:49:55.352Z,13.93
2023-05-15T16:52:23.618Z,13.96
2023-05-15T16:54:51.899Z,13.97
2023-05-15T16:57:20.575Z,13.97
2023-05-15T16:59:48.749Z,13.88
2023-05-15T17:02:16.975Z,13.83
2023-05-15T17:04:45.604Z,13.84
2023-05-15T17:07:13.982Z,13.85
2023-05-15T17:09:44.644Z,13.84
2023-05-15T17:12:13.194Z,13.84
2023-05-15T17:14:41.571Z,13.81
2023-05-15T17:17:09.754Z,13.81
2023-05-15T17:19:38.220Z,13.87
2023-05-15T17:22:06.441Z,13.84
2023-05-15T17:24:49.411Z,13.81
2023-05-15T17:27:19.984Z,13.78
2023-05-15T17:29:48.367Z,13.75
2023-05-15T17:32:17.587Z,13.68
2023-05-15T17:34:46.315Z,13.60
2023-05-15T17:37:15.022Z,13.53
2023-05-15T17:39:43.373Z,13.48
2023-05-15T17:42:11.656Z,13.41
2023-05-15T17:44:39.914Z,13.34
2023-05-15T17:47:10.107Z,13.29
2023-05-15T17:49:39.113Z,13.24
2023-05-15T17:52:08.216Z,13.15
2023-05-15T17:54:36.395Z,13.10
2023-05-15T17:57:05.038Z,13.04
2023-05-15T17:59:33.249Z,12.97
2023-05-15T18:02:02.168Z,12.94
2023-05-15T18:04:30.510Z,12.93
2023-05-15T18:06:58.693Z,12.89
2023-05-15T18:09:26.969Z,12.85
2023-05-15T18:11:55.136Z,12.82
2023-05-15T18:14:23.510Z,12.76
2023-05-15T18:16:52.017Z,12.71
2023-05-15T18:19:20.530Z,12.66
2023-05-15T18:21:48.871Z,12.63
2023-05-15T18:24:17.167Z,12.57
2023-05-15T18:26:45.401Z,12.54
2023-05-15T18:29:13.568Z,12.50
2023-05-15T18:31:41.790Z,12.45
2023-05-15T18:34:10.129Z,12.38
2023-05-15T18:36:38.386Z,12.35
2023-05-15T18:39:07.495Z,12.33
2023-05-15T18:41:35.965Z,12.28
2023-05-15T18:44:04.345Z,12.23
2023-05-15T18:46:34.262Z,12.17
2023-05-15T18:49:02.630Z,12.13
2023-05-15T18:51:31.451Z,12.12
2023-05-15T18:53:59.690Z,12.11
2023-05-15T18:56:28.586Z,12.08
2023-05-15T18:58:56.754Z,12.04
2023-05-15T19:01:24.951Z,12.01
2023-05-15T19:03:53.099Z,11.97
2023-05-15T19:06:21.398Z,11.92
2023-05-15T19:08:49.649Z,11.88
2023-05-15T19:11:18.029Z,11.83
2023-05-15T19:13:46.520Z,11.78
2023-05-15T19:16:14.715Z,11.74
2023-05-15T19:18:43.123Z,11.68
2023-05-15T19:21:11.536Z,11.65
2023-05-15T19:23:40.017Z,11.61
2023-05-15T19:26:10.538Z,11.56
2023-05-15T19:28:38.610Z,11.54
2023-05-15T19:31:09.811Z,11.51
2023-05-15T19:33:42.738Z,11.47
2023-05-15T19:36:12.036Z,11.43
2023-05-15T19:38:40.309Z,11.40
2023-05-15T19:41:08.687Z,11.35
2023-05-15T19:43:38.906Z,11.32
2023-05-15T19:46:07.302Z,11.25
2023-05-15T19:48:35.661Z,11.17
2023-05-15T19:51:03.845Z,11.13
2023-05-15T19:53:32.106Z,11.07
2023-05-15T19:56:00.285Z,11.00
2023-05-15T19:58:28.468Z,10.90
2023-05-15T20:00:56.725Z,10.83
2023-05-15T20:03:32.661Z,10.72
2023-05-15T20:06:01.976Z,10.65
2023-05-15T20:08:30.255Z,10.60
2023-05-15T20:10:58.836Z,10.55
2023-05-15T20:13:27.421Z,10.51
2023-05-15T20:16:00.123Z,10.49
2023-05-15T20:18:32.175Z,10.49
2023-05-15T20:21:02.548Z,10.43
2023-05-15T20:23:30.777Z,10.39
2023-05-15T20:25:59.851Z,10.35
2023-05-15T20:28:28.637Z,10.33
2023-05-15T20:30:57.273Z,10.34
2023-05-15T20:33:25.719Z,10.31
2023-05-15T20:35:54.280Z,10.28
2023-05-15T20:38:25.444Z,10.33
2023-05-15T20:40:53.612Z,10.38
2023-05-15T20:43:21.867Z,10.40
2023-05-15T20:45:50.187Z,10.40
2023-05-15T20:48:18.418Z,10.41
2023-05-15T20:50:46.700Z,10.39
2023-05-15T20:53:14.975Z,10.33
2023-05-15T20:55:43.244Z,10.27
2023-05-15T20:58:11.523Z,10.22
2023-05-15T21:00:39.813Z,10.16
2023-05-15T21:03:09.637Z,10.12
2023-05-15T21:05:37.981Z,10.10
2023-05-15T21:08:06.152Z,10.07
2023-05-15T21:10:34.328Z,10.09
2023-05-15T21:13:02.601Z,10.13
2023-05-15T21:15:30.984Z,10.15
2023-05-15T21:17:59.196Z,10.14
2023-05-15T21:20:27.615Z,10.15
2023-05-15T21:22:55.904Z,10.17
2023-05-15T21:25:23.980Z,10.19
2023-05-15T21:27:52.249Z,10.21
2023-05-15T21:30:20.830Z,10.20
2023-05-15T21:32:49.022Z,10.21
2023-05-15T21:35:17.280Z,10.22
2023-05-15T21:37:45.660Z,10.25
2023-05-15T21:40:14.346Z,10.31
2023-05-15T21:42:43.231Z,10.36
2023-05-15T21:45:11.398Z,10.44
2023-05-15T21:47:39.797Z,10.54
2023-05-15T21:50:08.086Z,10.62
2023-05-15T21:52:36.636Z,10.73
2023-05-15T21:55:05.541Z,10.81
2023-05-15T21:57:33.897Z,10.86
2023-05-15T22:00:02.787Z,10.89
2023-05-15T22:02:34.404Z,10.89
2023-05-15T22:05:03.428Z,10.90
2023-05-15T22:07:31.601Z,10.90
2023-05-15T22:09:59.784Z,10.87
2023-05-15T22:12:28.464Z,10.81
2023-05-15T22:14:58.846Z,10.77
2023-05-15T22:17:30.719Z,10.76
2023-05-15T22:20:07.903Z,10.74
2023-05-15T22:22:36.725Z,10.71
2023-05-15T22:25:06.169Z,10.65
2023-05-15T22:27:34.390Z,10.60
2023-05-15T22:30:02.975Z,10.53
2023-05-15T22:32:31.194Z,10.42
2023-05-15T22:34:59.632Z,10.35
2023-05-15T22:37:28.004Z,10.29
2023-05-15T22:39:56.589Z,10.24
2023-05-15T22:42:24.762Z,10.20
2023-05-15T22:44:54.361Z,10.18
2023-05-15T22:47:22.565Z,10.16
2023-05-15T22:49:51.423Z,10.14
2023-05-15T22:52:19.704Z,10.13
2023-05-15T22:54:47.967Z,10.13
2023-05-15T22:57:16.248Z,10.14
2023-05-15T22:59:44.738Z,10.14
2023-05-15T23:02:13.006Z,10.15
2023-05-15T23:04:41.589Z,10.14
2023-05-15T23:07:09.803Z,10.12
2023-05-15T23:09:38.028Z,10.10
2023-05-15T23:12:06.783Z,10.08
2023-05-15T23:14:35.099Z,10.07
2023-05-15T23:17:03.792Z,10.05
2023-05-15T23:19:32.165Z,10.03
2023-05-15T23:22:00.630Z,9.99
2023-05-15T23:24:28.812Z,9.95
2023-05-15T23:26:56.980Z,9.91
2023-05-15T23:29:25.359Z,9.88
2023-05-15T23:31:57.121Z,9.85
2023-05-15T23:34:25.282Z,9.82
2023-05-15T23:36:53.454Z,9.79
2023-05-15T23:39:21.729Z,9.77
2023-05-15T23:41:49.905Z,9.73
2023-05-15T23:44:18.182Z,9.73
2023-05-15T23:46:46.528Z,9.71
2023-05-15T23:49:14.834Z,9.69
2023-05-15T23:51:43.924Z,9.62
2023-05-15T23:54:12.104Z,9.56
2023-05-15T23:56:40.273Z,9.53
2023-05-15T23:59:08.542Z,9.54
